Ranfurly, Alberta

Past 24 Hour Conditions

This table is a summary of hourly weather conditions for the past 24 hours. This summary includes the following parameters: temperature, humidity, dew point, wind speed and direction, air pressure, visibility and/or wind chill and humidex.
Date / Time
(MDT)
Conditions Temp (°F) Humidity (%) Dew Point (°F) Wind (mph) Pressure (inches) Vis (mi) Humidex
29 July 2014
8:00 N/A 63 85 59 SE 5 30.2 N/A *
7:00 N/A 62 87 58 ESE 3 30.2 N/A *
6:00 N/A 59   94 57 ESE 3 30.2 N/A *
5:00 N/A 59   95 57 ESE 4 30.2 N/A *
4:00 N/A 60 95 58 SE 4 30.2 N/A *
3:00 N/A 61 94 59 SE 4 30.2 N/A *
2:00 N/A 62 93 60 ESE 4 30.2 N/A *
1:00 N/A 63 92 60 SE 4 30.2 N/A *
00:00 N/A 64 90 61 SE 4 30.2 N/A *
28 July 2014
23:00 N/A 65 88 62 ESE 3 30.2 N/A *
22:00 N/A 68 80 62 ESE 5 30.2 N/A *
21:00 N/A 72 73 63 ESE 3 30.2 N/A 82
20:00 N/A 76 63 62 ESE 3 30.2 N/A 85
19:00 N/A 78 53 60 ESE 5 30.2 N/A 86
18:00 N/A 80   50 59 SE 4 30.2 N/A 87
17:00 N/A 80   47 58 SE 6 30.2 N/A 86
16:00 N/A 80   46 57 SE 6 30.2 N/A 86
15:00 N/A 79 48 58 SE 7 30.2 N/A 86
14:00 N/A 79 57 62 SSE 6 30.2 N/A 88
13:00 N/A 78 55 60 SSE 5 30.2 N/A 85
12:00 N/A 75 58 59 SE 4 30.2 N/A 83
11:00 N/A 73 64 60 SE 6 30.2 N/A 81
10:00 N/A 70 71 60 ESE 5 30.2 N/A 78
9:00 N/A 66 76 59 SSE 5 30.2 N/A *
8:00 N/A 63 81 57 SE 3 30.2 N/A *
N/A
Not available
 ↑ 
Highest temperature
 ↓ 
Lowest temperature
*
Value not significant.

If you require additional historical weather information, please visit Climate Data Online.